Stevens Point, WI (54481)

10:04 PM CST on January 19, 2017 (GMT -0600)
2nd Street North | | Change Station
Active Advisory: Freezing Rain Advisory

Elev 1115 ft 44.54 °N, 89.59 °W | Updated 30 seconds ago

Overcast
Overcast
32.5 °F
Feels Like 32 °F
N
0.6
Wind Variable Wind from West
Gusts 1.9 mph

Today
High -- | Low -- °F
--% Chance of Precip.
Yesterday
High -- | Low -- °F
Precip. -- in
Pressure 29.80 in
Visibility 3.0 miles
Clouds Overcast 200 ft
Windchill 32 °F
Dew Point 30 °F
Humidity 90%
Rainfall in
Snow Depth Not available.
7:28 AM 4:49 PM
Waning Gibbous, 48% visible
METAR KSTE 200355Z AUTO 11005KT 3SM BR OVC002 M01/M01 A2980 RMK AO2 T10111011
Pressure 29.80 in
Visibility 3.0 miles
Clouds Overcast 200 ft
Windchill 32 °F
Dew Point 30 °F
Humidity 90%
Rainfall in
Snow Depth Not available.
7:28 AM 4:49 PM
Waning Gibbous, 48% visible
METAR KSTE 200355Z AUTO 11005KT 3SM BR OVC002 M01/M01 A2980 RMK AO2 T10111011

Get Your Daily Forecast Email!

Thanks for signing up!

Be on the lookout for a verification email in your inbox.

You'll start receiving the daily forecast at 8 AM.

×

10-Day Weather Forecast

Almanac

Astronomy

Jan. 19, 2017 Rise Set
Actual Time
Civil Twilight
Nautical Twilight
Astronomical Twilight
Moon
Length of Visible Light
Length of Day
Tomorrow will be .
, % of the Moon is Illuminated

Today's Extremes

State Highs State Lows

Community

WunderPhotos

Upload Photos

1,962,540 photos uploaded!

WunderBlog® & News

Nearby

Air Quality

  Air Quality AQ Index Pollutant
Not available.

Snow Depth

Station Depth Elevation

Earthquake Activity

City Distance Mag. Time & Date
Minimum magnitude displayed is 2.5.

Coastal Water Temperatures

Place Temperature

Stations

Nearby Weather Stations

Station Location Temp. Windchill Dew Point Humidity Wind Precip. Elev Updated Type
                   

Watches & Warnings

Freezing Rain Advisory
Issued: 3:33 PM CST Jan. 19, 2017 – National Weather Service

... Freezing Rain Advisory in effect until 9 am CST Friday...

The National Weather Service in Green Bay has issued a Freezing
Rain Advisory... which is in effect until 9 am CST Friday.

* Expect freezing rain to develop in central Wisconsin this
evening after 6 PM and then diminish around 9 am Friday.

* Total ice accumulations of nearly 2/10 of an inch are expected
in some locations.

* The ice will result in difficult travel conditions... including
during the morning commute on Friday.

Precautionary/preparedness actions...

A Freezing Rain Advisory means that periods of freezing rain or
freezing drizzle will cause travel difficulties. Be prepared for
slippery roads. Slow down and use extra caution while driving.
The latest Wisconsin Road conditions can be obtained by calling
511.